Time;durP1;ratioP1;P1;durP2;ratioP2;P2;SDS_P1;SDS_P2;PMS_P1;PMS_P2;Temp;Humidity;BMP_temperature;BMP_pressure;BME280_temperature;BME280_humidity;BME280_pressure;Samples;Min_cycle;Max_cycle;Signal;HPM_P1;HPM_P2
2021/11/28 00:02:17;;;;;;;5.25;3.15;;;;;;;;;;5027447;28;20080;-77
2021/11/28 00:04:42;;;;;;;6.35;3.67;;;;;;;;;;5027488;28;20124;-76
2021/11/28 00:07:26;;;;;;;6.72;3.05;;;;;;;;;;5027015;28;20454;-76
2021/11/28 00:14:54;;;;;;;5.72;2.53;;;;;;;;;;5028495;28;20047;-76
2021/11/28 00:17:21;;;;;;;4.63;2.53;;;;;;;;;;5028877;28;20076;-77
2021/11/28 00:19:46;;;;;;;5.95;2.47;;;;;;;;;;5029516;28;20127;-75
2021/11/28 00:22:12;;;;;;;4.47;2.63;;;;;;;;;;5025503;28;20033;-78
2021/11/28 00:24:37;;;;;;;5.10;2.45;;;;;;;;;;5021506;28;20100;-76
2021/11/28 00:27:03;;;;;;;5.03;2.28;;;;;;;;;;5023321;28;20527;-77
2021/11/28 00:29:28;;;;;;;5.20;2.40;;;;;;;;;;5022310;28;20025;-76
2021/11/28 00:31:55;;;;;;;4.55;2.65;;;;;;;;;;5029707;28;20035;-76
2021/11/28 00:34:21;;;;;;;4.95;2.70;;;;;;;;;;5025707;28;20117;-76
2021/11/28 00:36:46;;;;;;;5.25;2.50;;;;;;;;;;5029901;28;20109;-77
2021/11/28 00:39:11;;;;;;;3.75;2.22;;;;;;;;;;5025925;28;20568;-75
2021/11/28 00:41:36;;;;;;;6.47;2.85;;;;;;;;;;5019893;28;20018;-77
2021/11/28 00:44:02;;;;;;;5.78;3.05;;;;;;;;;;5028281;28;20079;-77
2021/11/28 00:46:27;;;;;;;3.67;2.25;;;;;;;;;;5025742;28;20018;-77
2021/11/28 00:48:52;;;;;;;5.03;2.60;;;;;;;;;;5028711;28;20083;-76
2021/11/28 00:53:43;;;;;;;6.22;3.10;;;;;;;;;;5021713;28;20436;-79
2021/11/28 00:56:09;;;;;;;6.38;3.10;;;;;;;;;;5026711;28;20079;-77
2021/11/28 00:58:34;;;;;;;5.80;3.35;;;;;;;;;;5026936;28;20022;-76
2021/11/28 01:00:59;;;;;;;5.82;2.78;;;;;;;;;;5027755;28;20029;-77
2021/11/28 01:03:25;;;;;;;5.50;2.58;;;;;;;;;;5030864;28;20071;-76
2021/11/28 01:05:50;;;;;;;5.45;2.85;;;;;;;;;;5024948;28;20017;-76
2021/11/28 01:08:15;;;;;;;5.97;2.80;;;;;;;;;;5018681;28;20511;-76
2021/11/28 01:10:41;;;;;;;4.90;2.40;;;;;;;;;;5010733;28;20030;-78
2021/11/28 01:13:06;;;;;;;6.50;3.10;;;;;;;;;;5026273;28;20445;-76
2021/11/28 01:15:31;;;;;;;4.65;2.80;;;;;;;;;;5029192;28;20495;-77
2021/11/28 01:17:57;;;;;;;4.85;2.70;;;;;;;;;;5028541;28;20067;-76
2021/11/28 01:20:22;;;;;;;7.45;3.28;;;;;;;;;;5017001;28;20025;-79
2021/11/28 01:22:47;;;;;;;4.65;3.10;;;;;;;;;;5025104;28;20022;-76
2021/11/28 01:25:13;;;;;;;5.40;2.88;;;;;;;;;;5024220;28;20025;-78
2021/11/28 01:27:39;;;;;;;5.75;3.05;;;;;;;;;;5026651;28;20032;-76
2021/11/28 01:30:05;;;;;;;4.80;2.58;;;;;;;;;;5029590;28;20021;-78
2021/11/28 01:32:31;;;;;;;6.00;3.13;;;;;;;;;;5027197;28;20033;-77
2021/11/28 01:34:56;;;;;;;6.25;2.72;;;;;;;;;;5024269;28;20453;-78
2021/11/28 01:37:21;;;;;;;6.60;2.67;;;;;;;;;;5029060;28;20037;-78
2021/11/28 01:39:47;;;;;;;4.30;2.30;;;;;;;;;;5021309;28;20029;-78
2021/11/28 01:42:12;;;;;;;3.55;2.30;;;;;;;;;;5025907;28;20032;-78
2021/11/28 01:44:38;;;;;;;4.13;2.22;;;;;;;;;;5024373;28;20116;-76
2021/11/28 01:47:03;;;;;;;2.90;1.90;;;;;;;;;;5028473;28;20101;-77
2021/11/28 01:49:28;;;;;;;5.13;2.03;;;;;;;;;;5021619;28;20168;-77
2021/11/28 01:51:53;;;;;;;3.90;2.00;;;;;;;;;;5023003;28;20034;-78
2021/11/28 01:54:19;;;;;;;4.32;2.00;;;;;;;;;;5024889;28;20041;-78
2021/11/28 01:56:46;;;;;;;4.00;2.13;;;;;;;;;;5020741;28;20028;-79
2021/11/28 01:59:12;;;;;;;5.00;2.38;;;;;;;;;;5022638;28;20036;-75
2021/11/28 02:01:38;;;;;;;3.63;2.20;;;;;;;;;;5024815;28;20404;-77
2021/11/28 02:04:03;;;;;;;4.35;2.38;;;;;;;;;;5026622;28;20030;-76
2021/11/28 02:06:29;;;;;;;3.92;2.10;;;;;;;;;;5029231;28;20046;-76
2021/11/28 02:08:54;;;;;;;4.03;2.28;;;;;;;;;;5028628;28;21003;-76
2021/11/28 02:11:20;;;;;;;4.47;2.20;;;;;;;;;;5023399;28;20128;-77
2021/11/28 02:13:45;;;;;;;4.38;2.25;;;;;;;;;;5023093;28;20037;-76
2021/11/28 02:16:11;;;;;;;4.25;2.50;;;;;;;;;;5027463;28;20079;-78
2021/11/28 02:18:36;;;;;;;3.47;2.10;;;;;;;;;;5026436;28;20034;-78
2021/11/28 02:21:03;;;;;;;4.68;2.50;;;;;;;;;;5020826;28;20065;-78
2021/11/28 02:23:28;;;;;;;5.63;1.85;;;;;;;;;;5021968;28;20026;-81
2021/11/28 02:25:58;;;;;;;3.53;2.00;;;;;;;;;;5030315;28;20021;-77
2021/11/28 02:28:23;;;;;;;4.75;2.10;;;;;;;;;;5030744;28;20025;-77
2021/11/28 02:30:49;;;;;;;3.03;1.77;;;;;;;;;;5025637;28;20105;-76
2021/11/28 02:33:14;;;;;;;4.25;1.88;;;;;;;;;;5029667;28;20022;-77
2021/11/28 02:35:40;;;;;;;3.70;1.95;;;;;;;;;;5024707;28;20113;-78
2021/11/28 02:38:06;;;;;;;4.55;1.90;;;;;;;;;;5022429;28;20087;-77
2021/11/28 02:40:32;;;;;;;3.75;2.08;;;;;;;;;;5025935;28;20033;-76
2021/11/28 02:42:57;;;;;;;5.85;2.03;;;;;;;;;;5029506;28;20026;-76
2021/11/28 02:45:25;;;;;;;3.55;2.13;;;;;;;;;;5031530;28;20029;-77
2021/11/28 02:47:51;;;;;;;4.00;2.30;;;;;;;;;;5026022;28;20040;-77
2021/11/28 02:50:18;;;;;;;4.18;1.95;;;;;;;;;;5028846;28;20022;-77
2021/11/28 02:52:54;;;;;;;4.55;2.30;;;;;;;;;;5030075;28;20532;-76
2021/11/28 02:55:23;;;;;;;3.13;1.98;;;;;;;;;;5023799;28;20033;-78
2021/11/28 02:57:49;;;;;;;5.75;2.28;;;;;;;;;;5028306;28;20026;-75
2021/11/28 03:00:14;;;;;;;2.78;1.90;;;;;;;;;;5023433;28;20025;-75
2021/11/28 03:02:39;;;;;;;3.63;1.90;;;;;;;;;;5024683;28;20045;-76
2021/11/28 03:05:05;;;;;;;3.63;1.90;;;;;;;;;;5029369;28;20100;-77
2021/11/28 03:07:30;;;;;;;3.63;2.00;;;;;;;;;;5027764;28;20147;-77
2021/11/28 03:09:55;;;;;;;6.97;2.10;;;;;;;;;;5025671;28;20021;-76
2021/11/28 03:12:20;;;;;;;3.97;2.20;;;;;;;;;;5024408;28;20025;-76
2021/11/28 03:14:46;;;;;;;3.38;2.22;;;;;;;;;;5027570;28;20064;-77
2021/11/28 03:17:11;;;;;;;5.50;2.67;;;;;;;;;;5030593;28;20037;-78
2021/11/28 03:19:39;;;;;;;5.90;2.90;;;;;;;;;;5029605;28;20669;-77
2021/11/28 03:22:04;;;;;;;4.60;2.47;;;;;;;;;;5025650;28;20119;-78
2021/11/28 03:24:29;;;;;;;3.95;2.60;;;;;;;;;;5027590;28;20032;-77
2021/11/28 03:26:54;;;;;;;4.47;2.25;;;;;;;;;;5024242;28;20405;-77
2021/11/28 03:29:21;;;;;;;5.22;2.25;;;;;;;;;;5020107;28;20497;-77
2021/11/28 03:31:48;;;;;;;4.63;2.38;;;;;;;;;;5026521;28;20037;-76
2021/11/28 03:34:14;;;;;;;4.90;2.28;;;;;;;;;;5029018;28;20032;-77
2021/11/28 03:36:43;;;;;;;4.18;2.70;;;;;;;;;;5022073;28;20025;-77
2021/11/28 03:39:09;;;;;;;3.40;2.40;;;;;;;;;;5030338;28;20033;-77
2021/11/28 03:41:35;;;;;;;3.80;2.50;;;;;;;;;;5023004;28;20531;-79
2021/11/28 03:44:00;;;;;;;5.97;2.50;;;;;;;;;;5029995;28;20067;-77
2021/11/28 03:46:28;;;;;;;4.50;2.50;;;;;;;;;;5023728;28;20052;-76
2021/11/28 03:48:54;;;;;;;5.93;2.60;;;;;;;;;;5033274;28;20022;-76
2021/11/28 03:51:19;;;;;;;4.85;2.75;;;;;;;;;;5022889;28;20351;-78
2021/11/28 03:53:45;;;;;;;4.15;2.60;;;;;;;;;;5030142;28;20073;-78
2021/11/28 03:56:10;;;;;;;4.22;2.53;;;;;;;;;;5023031;28;20050;-77
2021/11/28 03:58:36;;;;;;;4.50;2.63;;;;;;;;;;5024294;28;20029;-76
2021/11/28 04:01:03;;;;;;;5.30;2.50;;;;;;;;;;5027089;28;20033;-76
2021/11/28 04:03:28;;;;;;;5.53;2.55;;;;;;;;;;5025438;28;20067;-77
2021/11/28 04:05:54;;;;;;;6.20;2.83;;;;;;;;;;5022296;28;20037;-76
2021/11/28 04:08:19;;;;;;;3.97;2.80;;;;;;;;;;5023664;28;20524;-76
2021/11/28 04:10:45;;;;;;;5.35;2.42;;;;;;;;;;5024731;28;20469;-77
2021/11/28 04:13:11;;;;;;;3.67;2.50;;;;;;;;;;5025593;28;20021;-76
2021/11/28 04:15:36;;;;;;;5.93;2.33;;;;;;;;;;5029340;28;20025;-77
2021/11/28 04:18:01;;;;;;;5.05;2.30;;;;;;;;;;5029683;28;20239;-76
2021/11/28 04:20:27;;;;;;;5.07;2.47;;;;;;;;;;5027438;28;20115;-78
2021/11/28 04:22:52;;;;;;;3.72;2.20;;;;;;;;;;5027852;28;20086;-76
2021/11/28 04:25:17;;;;;;;3.55;2.40;;;;;;;;;;5028978;28;20127;-78
2021/11/28 04:27:43;;;;;;;4.18;2.05;;;;;;;;;;5028013;28;20057;-77
2021/11/28 04:30:09;;;;;;;4.28;2.40;;;;;;;;;;5029178;28;20542;-76
2021/11/28 04:32:34;;;;;;;3.88;2.25;;;;;;;;;;5029363;28;20499;-77
2021/11/28 04:35:00;;;;;;;4.68;2.20;;;;;;;;;;5022919;28;20036;-76
2021/11/28 04:37:25;;;;;;;4.95;2.53;;;;;;;;;;5023427;28;20574;-77
2021/11/28 04:39:50;;;;;;;6.70;2.28;;;;;;;;;;5028785;28;20021;-75
2021/11/28 04:42:15;;;;;;;3.30;2.20;;;;;;;;;;5022736;28;20130;-77
2021/11/28 04:44:41;;;;;;;4.40;2.33;;;;;;;;;;5024073;28;20028;-75
2021/11/28 04:47:06;;;;;;;4.97;2.13;;;;;;;;;;5029043;28;20025;-77
2021/11/28 04:49:31;;;;;;;4.10;2.10;;;;;;;;;;5026408;28;20033;-77
2021/11/28 04:51:56;;;;;;;6.35;2.13;;;;;;;;;;5023131;28;20123;-74
2021/11/28 04:54:22;;;;;;;3.70;2.58;;;;;;;;;;5022747;28;20041;-76
2021/11/28 04:56:47;;;;;;;3.78;2.40;;;;;;;;;;5027937;28;20033;-75
2021/11/28 04:59:12;;;;;;;4.38;2.40;;;;;;;;;;5027141;28;20034;-76
2021/11/28 05:01:38;;;;;;;4.60;2.00;;;;;;;;;;5020764;28;20040;-77
2021/11/28 05:04:03;;;;;;;6.90;2.67;;;;;;;;;;5025410;28;20025;-75
2021/11/28 05:06:28;;;;;;;6.15;2.90;;;;;;;;;;5019803;28;20073;-76
2021/11/28 05:08:54;;;;;;;4.63;2.10;;;;;;;;;;5028711;28;20052;-79
2021/11/28 05:11:19;;;;;;;3.67;2.13;;;;;;;;;;5028096;28;20024;-76
2021/11/28 05:13:45;;;;;;;6.53;2.60;;;;;;;;;;5025471;28;20101;-77
2021/11/28 05:16:10;;;;;;;4.88;2.70;;;;;;;;;;5025432;28;20021;-79
2021/11/28 05:18:35;;;;;;;4.53;2.35;;;;;;;;;;5023668;28;20025;-76
2021/11/28 05:21:00;;;;;;;4.32;2.30;;;;;;;;;;5029269;28;20009;-75
2021/11/28 05:23:25;;;;;;;6.03;2.45;;;;;;;;;;5026310;28;20036;-76
2021/11/28 05:25:51;;;;;;;3.92;2.35;;;;;;;;;;5028394;28;20045;-78
2021/11/28 05:28:16;;;;;;;6.68;2.30;;;;;;;;;;5026564;28;20131;-75
2021/11/28 05:30:41;;;;;;;4.38;2.30;;;;;;;;;;5031106;28;20036;-78
2021/11/28 05:33:06;;;;;;;4.40;2.25;;;;;;;;;;5027594;28;20045;-78
2021/11/28 05:35:32;;;;;;;5.47;2.85;;;;;;;;;;5026492;28;20081;-75
2021/11/28 05:37:58;;;;;;;4.65;2.60;;;;;;;;;;5027524;28;20034;-76
2021/11/28 05:40:23;;;;;;;4.47;2.47;;;;;;;;;;5023223;28;20369;-77
2021/11/28 05:42:50;;;;;;;3.72;2.50;;;;;;;;;;5027955;28;20025;-77
2021/11/28 05:45:20;;;;;;;5.03;2.65;;;;;;;;;;5028435;28;20078;-76
2021/11/28 05:47:45;;;;;;;4.40;2.30;;;;;;;;;;5027759;28;20033;-75
2021/11/28 05:50:10;;;;;;;3.95;2.60;;;;;;;;;;5027880;28;20474;-76
2021/11/28 05:52:36;;;;;;;4.88;2.45;;;;;;;;;;5026644;28;20120;-75
2021/11/28 05:55:03;;;;;;;3.72;2.33;;;;;;;;;;5028509;28;20044;-76
2021/11/28 05:57:28;;;;;;;4.88;2.40;;;;;;;;;;5028336;28;20124;-76
2021/11/28 05:59:53;;;;;;;3.78;2.38;;;;;;;;;;5021313;28;20120;-77
2021/11/28 06:02:18;;;;;;;4.18;2.55;;;;;;;;;;5023913;28;20014;-74
2021/11/28 06:04:43;;;;;;;5.30;2.80;;;;;;;;;;5029299;28;20040;-76
2021/11/28 06:07:09;;;;;;;4.07;2.40;;;;;;;;;;5028673;28;20679;-77
2021/11/28 06:09:34;;;;;;;5.55;2.50;;;;;;;;;;5027669;28;20033;-77
2021/11/28 06:11:59;;;;;;;4.93;2.60;;;;;;;;;;5026824;28;20069;-77
2021/11/28 06:14:24;;;;;;;4.47;2.05;;;;;;;;;;5025593;28;20121;-76
2021/11/28 06:16:50;;;;;;;4.28;2.55;;;;;;;;;;5031450;28;20093;-75
2021/11/28 06:19:15;;;;;;;4.07;2.60;;;;;;;;;;5030614;28;20083;-76
2021/11/28 06:21:40;;;;;;;4.70;2.58;;;;;;;;;;5029745;28;20017;-76
2021/11/28 06:24:05;;;;;;;4.43;2.25;;;;;;;;;;5031242;28;20457;-76
2021/11/28 06:26:31;;;;;;;4.30;2.40;;;;;;;;;;5030596;28;20044;-78
2021/11/28 06:28:56;;;;;;;4.55;2.45;;;;;;;;;;5026018;28;20116;-78
2021/11/28 06:31:22;;;;;;;4.90;2.75;;;;;;;;;;5028930;28;20044;-77
2021/11/28 06:33:47;;;;;;;5.10;2.63;;;;;;;;;;5035253;28;20037;-77
2021/11/28 06:36:12;;;;;;;5.45;2.80;;;;;;;;;;5025467;28;20030;-74
2021/11/28 06:38:37;;;;;;;7.00;2.78;;;;;;;;;;5026341;28;20060;-77
2021/11/28 06:41:03;;;;;;;6.78;2.70;;;;;;;;;;5023062;28;20529;-77
2021/11/28 06:43:28;;;;;;;3.85;2.60;;;;;;;;;;5030066;28;20670;-77
2021/11/28 06:45:53;;;;;;;6.05;2.80;;;;;;;;;;5030901;28;20708;-77
2021/11/28 06:48:18;;;;;;;4.72;2.70;;;;;;;;;;5025759;28;20465;-78
2021/11/28 06:50:44;;;;;;;6.38;3.08;;;;;;;;;;5014934;28;20018;-76
2021/11/28 06:53:09;;;;;;;5.47;3.03;;;;;;;;;;5024445;28;20182;-78
2021/11/28 06:55:34;;;;;;;5.30;3.03;;;;;;;;;;5020282;28;20029;-78
2021/11/28 06:57:59;;;;;;;5.93;2.45;;;;;;;;;;5025691;28;20013;-77
2021/11/28 07:00:24;;;;;;;6.35;2.50;;;;;;;;;;5027648;28;20175;-75
2021/11/28 07:02:50;;;;;;;5.68;3.85;;;;;;;;;;5024236;28;20026;-77
2021/11/28 07:05:15;;;;;;;7.25;2.97;;;;;;;;;;5022066;28;20109;-76
2021/11/28 07:07:40;;;;;;;5.20;2.72;;;;;;;;;;5021525;28;20092;-76
2021/11/28 07:10:06;;;;;;;5.47;3.00;;;;;;;;;;5025227;28;20017;-78
2021/11/28 07:12:31;;;;;;;7.93;3.17;;;;;;;;;;5018355;28;20040;-77
2021/11/28 07:14:57;;;;;;;5.20;3.10;;;;;;;;;;5020123;28;20043;-79
2021/11/28 07:17:22;;;;;;;6.40;3.17;;;;;;;;;;5036225;28;20009;-77
2021/11/28 07:19:47;;;;;;;7.72;3.40;;;;;;;;;;5015005;28;20088;-78
2021/11/28 07:22:12;;;;;;;5.63;3.28;;;;;;;;;;5022474;28;20021;-77
2021/11/28 07:24:38;;;;;;;10.70;3.60;;;;;;;;;;5025538;28;20068;-78
2021/11/28 07:27:03;;;;;;;6.25;2.95;;;;;;;;;;5030094;28;20073;-77
2021/11/28 07:29:28;;;;;;;4.95;3.58;;;;;;;;;;5025318;28;20037;-79
2021/11/28 07:31:54;;;;;;;6.28;3.38;;;;;;;;;;5029902;28;20036;-78
2021/11/28 07:34:19;;;;;;;8.32;3.40;;;;;;;;;;5029518;28;20051;-78
2021/11/28 07:36:44;;;;;;;6.38;3.55;;;;;;;;;;5025079;28;20128;-78
2021/11/28 07:39:10;;;;;;;5.88;2.95;;;;;;;;;;5025416;28;20049;-78
2021/11/28 07:41:36;;;;;;;7.05;3.33;;;;;;;;;;5036357;28;20101;-78
2021/11/28 07:44:01;;;;;;;7.80;3.55;;;;;;;;;;5034052;28;20087;-80
2021/11/28 07:46:27;;;;;;;6.80;3.10;;;;;;;;;;5025504;28;20029;-63
2021/11/28 07:48:52;;;;;;;5.97;2.85;;;;;;;;;;5022544;28;20037;-62
2021/11/28 07:51:17;;;;;;;4.95;2.72;;;;;;;;;;5028942;28;20021;-63
2021/11/28 07:53:45;;;;;;;5.50;2.55;;;;;;;;;;5029333;28;20073;-63
2021/11/28 07:56:11;;;;;;;6.35;2.65;;;;;;;;;;5027066;28;20016;-63
2021/11/28 07:58:37;;;;;;;4.70;2.22;;;;;;;;;;5026999;28;20022;-65
2021/11/28 08:01:02;;;;;;;3.80;1.70;;;;;;;;;;5025586;28;20021;-63
2021/11/28 08:03:27;;;;;;;4.55;1.90;;;;;;;;;;5026681;28;20036;-64
2021/11/28 08:05:58;;;;;;;7.20;1.80;;;;;;;;;;5023106;28;20017;-63
2021/11/28 08:08:23;;;;;;;4.05;1.73;;;;;;;;;;5024333;28;20136;-64
2021/11/28 08:10:48;;;;;;;4.50;2.40;;;;;;;;;;5028810;28;20096;-64
2021/11/28 08:13:13;;;;;;;5.90;2.03;;;;;;;;;;5026670;28;20053;-64
2021/11/28 08:15:39;;;;;;;3.53;1.58;;;;;;;;;;5027812;28;20112;-64
2021/11/28 08:18:04;;;;;;;3.78;1.92;;;;;;;;;;5028663;28;20029;-64
2021/11/28 08:20:29;;;;;;;4.07;1.67;;;;;;;;;;5025770;28;20536;-63
2021/11/28 08:22:55;;;;;;;3.13;1.60;;;;;;;;;;5027590;28;20041;-63
2021/11/28 08:25:20;;;;;;;4.68;1.67;;;;;;;;;;5027018;28;20561;-64
2021/11/28 08:27:46;;;;;;;3.88;1.83;;;;;;;;;;5024648;28;20029;-62
2021/11/28 08:30:14;;;;;;;4.63;2.25;;;;;;;;;;5029532;28;20033;-63
2021/11/28 08:32:40;;;;;;;4.18;2.30;;;;;;;;;;5029802;28;20027;-64
2021/11/28 08:35:06;;;;;;;6.28;2.40;;;;;;;;;;5029519;28;20116;-64
2021/11/28 08:37:32;;;;;;;4.32;2.30;;;;;;;;;;5029466;28;20465;-64
2021/11/28 08:39:57;;;;;;;5.53;2.15;;;;;;;;;;5027730;28;20167;-64
2021/11/28 08:42:23;;;;;;;4.80;2.47;;;;;;;;;;5029369;28;20465;-63
2021/11/28 08:44:49;;;;;;;5.55;2.90;;;;;;;;;;5029049;28;20497;-63
2021/11/28 08:47:14;;;;;;;4.70;2.70;;;;;;;;;;5029377;28;20017;-64
2021/11/28 08:49:39;;;;;;;6.43;3.13;;;;;;;;;;5027710;28;20032;-65
2021/11/28 08:52:05;;;;;;;5.47;3.20;;;;;;;;;;5023809;28;20032;-67
2021/11/28 08:54:30;;;;;;;6.63;3.15;;;;;;;;;;5029165;28;20060;-64
2021/11/28 08:56:56;;;;;;;7.43;3.40;;;;;;;;;;5026352;28;20033;-64
2021/11/28 08:59:21;;;;;;;5.88;3.05;;;;;;;;;;5021141;28;20037;-65
2021/11/28 09:01:46;;;;;;;5.80;2.83;;;;;;;;;;5032095;28;20044;-64
2021/11/28 09:04:12;;;;;;;6.05;2.65;;;;;;;;;;5027623;28;20362;-64
2021/11/28 09:06:37;;;;;;;5.93;3.00;;;;;;;;;;5027734;28;20464;-63
2021/11/28 09:09:03;;;;;;;5.80;3.03;;;;;;;;;;5025504;28;20029;-63
2021/11/28 09:11:28;;;;;;;4.75;2.75;;;;;;;;;;5026575;28;20773;-65
2021/11/28 09:13:54;;;;;;;5.63;2.63;;;;;;;;;;5017518;28;20053;-64
2021/11/28 09:16:19;;;;;;;3.97;2.65;;;;;;;;;;5017758;28;20017;-67
2021/11/28 09:18:52;;;;;;;6.13;2.53;;;;;;;;;;5024918;28;20057;-63
2021/11/28 09:21:17;;;;;;;4.70;2.35;;;;;;;;;;5029699;28;20413;-63
2021/11/28 09:26:27;;;;;;;3.95;1.95;;;;;;;;;;5028841;28;20480;-63
2021/11/28 09:28:53;;;;;;;5.10;2.25;;;;;;;;;;5014877;28;20029;-64
2021/11/28 09:31:19;;;;;;;5.55;2.10;;;;;;;;;;5021934;28;20036;-64
2021/11/28 09:33:44;;;;;;;5.57;2.13;;;;;;;;;;5016865;28;20029;-63
2021/11/28 09:36:09;;;;;;;5.07;1.90;;;;;;;;;;5013033;28;20030;-63
2021/11/28 09:38:35;;;;;;;4.53;2.15;;;;;;;;;;5019633;28;20403;-63
2021/11/28 09:41:02;;;;;;;5.65;2.08;;;;;;;;;;5026641;28;20086;-64
2021/11/28 09:43:27;;;;;;;3.17;2.00;;;;;;;;;;5027789;28;20466;-64
2021/11/28 09:45:55;;;;;;;3.08;2.00;;;;;;;;;;5022884;28;20088;-63
2021/11/28 09:48:22;;;;;;;3.70;2.03;;;;;;;;;;5022208;28;20014;-64
2021/11/28 09:50:47;;;;;;;5.03;2.30;;;;;;;;;;5022448;28;20104;-64
2021/11/28 09:53:13;;;;;;;4.43;2.00;;;;;;;;;;5023281;28;20144;-64
2021/11/28 09:55:38;;;;;;;6.07;2.50;;;;;;;;;;5023563;28;20085;-63
2021/11/28 09:58:04;;;;;;;4.22;2.22;;;;;;;;;;5008788;28;20072;-67
2021/11/28 10:00:29;;;;;;;5.97;2.30;;;;;;;;;;5029251;28;20027;-64
2021/11/28 10:02:54;;;;;;;3.85;1.85;;;;;;;;;;5024550;28;20478;-64
2021/11/28 10:05:20;;;;;;;3.72;2.03;;;;;;;;;;5020653;28;20390;-64
2021/11/28 10:07:47;;;;;;;4.53;2.22;;;;;;;;;;5027085;28;20046;-63
2021/11/28 10:10:12;;;;;;;4.05;2.10;;;;;;;;;;5024779;28;20104;-64
2021/11/28 10:12:42;;;;;;;4.03;2.13;;;;;;;;;;5025287;28;20429;-63
2021/11/28 10:15:09;;;;;;;4.05;1.98;;;;;;;;;;5026272;28;20037;-66
2021/11/28 10:17:36;;;;;;;3.40;2.10;;;;;;;;;;5027615;28;20052;-64
2021/11/28 10:20:04;;;;;;;4.03;2.30;;;;;;;;;;5024106;28;20360;-63
2021/11/28 10:22:29;;;;;;;4.55;2.10;;;;;;;;;;5021422;28;20037;-63
2021/11/28 10:25:02;;;;;;;2.95;1.90;;;;;;;;;;5026211;28;20030;-62
2021/11/28 10:27:48;;;;;;;4.55;2.50;;;;;;;;;;5017572;28;20026;-64
2021/11/28 10:30:15;;;;;;;2.70;1.90;;;;;;;;;;5025741;28;20041;-63
2021/11/28 10:32:42;;;;;;;5.38;2.50;;;;;;;;;;5027585;28;20028;-64
2021/11/28 10:35:11;;;;;;;6.03;2.20;;;;;;;;;;5021423;28;20474;-63
2021/11/28 10:37:45;;;;;;;3.10;1.85;;;;;;;;;;5026817;28;20053;-63
2021/11/28 10:40:11;;;;;;;5.70;2.03;;;;;;;;;;5026298;28;20017;-64
2021/11/28 10:42:36;;;;;;;3.25;1.60;;;;;;;;;;5023747;28;20441;-64
2021/11/28 10:45:02;;;;;;;3.92;1.85;;;;;;;;;;5025939;28;20038;-64
2021/11/28 10:47:33;;;;;;;3.70;1.85;;;;;;;;;;5031655;28;20032;-63
2021/11/28 10:50:05;;;;;;;4.47;2.20;;;;;;;;;;5030822;28;20021;-64
2021/11/28 10:52:31;;;;;;;6.07;2.13;;;;;;;;;;5029325;28;20021;-64
2021/11/28 10:54:57;;;;;;;4.05;2.30;;;;;;;;;;5030875;28;20038;-63
2021/11/28 10:57:24;;;;;;;5.03;2.58;;;;;;;;;;5030224;28;20036;-64
2021/11/28 10:59:59;;;;;;;6.63;2.70;;;;;;;;;;5025175;28;20034;-63
2021/11/28 11:02:32;;;;;;;4.90;2.50;;;;;;;;;;5028054;28;20488;-64
2021/11/28 11:04:59;;;;;;;5.57;2.30;;;;;;;;;;5030519;28;20049;-64
2021/11/28 11:07:25;;;;;;;4.32;2.28;;;;;;;;;;5027415;28;20084;-64
2021/11/28 11:09:51;;;;;;;4.53;2.53;;;;;;;;;;5030740;28;20040;-64
2021/11/28 11:12:18;;;;;;;7.00;2.97;;;;;;;;;;5022611;28;20029;-64
2021/11/28 11:14:43;;;;;;;4.55;2.53;;;;;;;;;;5030964;28;20116;-64
2021/11/28 11:17:10;;;;;;;6.40;3.20;;;;;;;;;;5026949;28;20113;-64
2021/11/28 11:19:39;;;;;;;4.22;2.75;;;;;;;;;;5024438;28;20057;-65
2021/11/28 11:22:12;;;;;;;5.10;2.75;;;;;;;;;;5022447;28;20018;-66
2021/11/28 11:24:38;;;;;;;5.03;2.70;;;;;;;;;;5024545;28;20028;-64
2021/11/28 11:27:04;;;;;;;6.25;3.13;;;;;;;;;;5029425;28;20021;-66
2021/11/28 11:29:30;;;;;;;5.30;3.45;;;;;;;;;;5022473;28;20036;-64
2021/11/28 11:31:57;;;;;;;8.35;2.95;;;;;;;;;;5036216;28;20021;-65
2021/11/28 11:34:26;;;;;;;5.82;3.00;;;;;;;;;;5030185;28;20037;-65
2021/11/28 11:36:56;;;;;;;5.05;2.90;;;;;;;;;;5022218;28;20057;-66
2021/11/28 11:39:22;;;;;;;5.75;3.13;;;;;;;;;;5029938;28;20026;-64
2021/11/28 11:41:48;;;;;;;6.22;3.20;;;;;;;;;;5026209;28;20024;-63
2021/11/28 11:44:17;;;;;;;8.65;3.10;;;;;;;;;;5023178;28;20018;-64
2021/11/28 11:46:48;;;;;;;6.55;2.80;;;;;;;;;;5023627;28;20508;-65
2021/11/28 11:49:14;;;;;;;5.40;2.42;;;;;;;;;;5029504;28;20475;-64
2021/11/28 11:51:39;;;;;;;7.22;2.95;;;;;;;;;;5028514;28;20159;-63
2021/11/28 11:54:05;;;;;;;8.20;3.67;;;;;;;;;;5028462;28;20170;-65
2021/11/28 11:56:31;;;;;;;6.78;3.33;;;;;;;;;;5030103;28;20048;-66
2021/11/28 11:59:05;;;;;;;6.65;3.75;;;;;;;;;;5029531;28;20028;-65
2021/11/28 12:01:30;;;;;;;8.05;4.10;;;;;;;;;;5031907;28;20013;-64
2021/11/28 12:03:56;;;;;;;7.00;3.92;;;;;;;;;;5028199;28;20036;-64
2021/11/28 12:06:40;;;;;;;6.90;4.60;;;;;;;;;;5019953;28;20045;-64
2021/11/28 12:09:21;;;;;;;9.02;4.30;;;;;;;;;;5025634;28;20029;-64
2021/11/28 12:12:12;;;;;;;6.97;3.90;;;;;;;;;;5022584;28;20413;-64
2021/11/28 12:14:57;;;;;;;6.82;3.58;;;;;;;;;;4983453;28;20092;-64
2021/11/28 12:17:36;;;;;;;7.75;3.58;;;;;;;;;;4986955;28;20121;-64
2021/11/28 12:20:01;;;;;;;7.07;3.97;;;;;;;;;;4986862;28;20092;-65
2021/11/28 12:22:44;;;;;;;6.57;4.00;;;;;;;;;;4984960;28;20470;-64
2021/11/28 12:25:28;;;;;;;7.75;4.18;;;;;;;;;;4982314;28;20563;-64
2021/11/28 12:27:53;;;;;;;6.00;3.85;;;;;;;;;;4987178;28;20080;-65
2021/11/28 12:30:31;;;;;;;8.65;4.60;;;;;;;;;;4984594;28;20042;-65
2021/11/28 12:32:57;;;;;;;7.00;3.47;;;;;;;;;;4986247;28;20038;-65
2021/11/28 12:35:36;;;;;;;6.30;3.75;;;;;;;;;;4983028;28;20978;-65
2021/11/28 12:38:01;;;;;;;5.38;3.47;;;;;;;;;;4980498;28;20057;-65
2021/11/28 12:40:28;;;;;;;5.50;3.22;;;;;;;;;;4985082;28;20558;-65
2021/11/28 12:42:54;;;;;;;6.45;3.53;;;;;;;;;;4984521;28;20028;-64
2021/11/28 12:45:27;;;;;;;7.00;3.40;;;;;;;;;;4979985;28;20042;-64
2021/11/28 12:48:16;;;;;;;5.05;3.15;;;;;;;;;;4982536;28;20441;-64
2021/11/28 12:50:48;;;;;;;5.35;3.33;;;;;;;;;;4986021;28;20053;-64
2021/11/28 12:53:23;;;;;;;5.97;3.20;;;;;;;;;;5015384;28;20021;-65
2021/11/28 12:56:09;;;;;;;6.63;3.40;;;;;;;;;;5019505;28;20038;-65
2021/11/28 12:58:34;;;;;;;6.25;3.42;;;;;;;;;;5016818;28;20049;-64
2021/11/28 13:00:59;;;;;;;6.40;3.42;;;;;;;;;;5023667;28;20515;-64
2021/11/28 13:03:25;;;;;;;6.03;3.03;;;;;;;;;;5033065;28;20421;-64
2021/11/28 13:05:55;;;;;;;7.95;3.30;;;;;;;;;;5021566;28;20037;-65
2021/11/28 13:08:20;;;;;;;6.80;3.38;;;;;;;;;;5020188;28;20041;-64
2021/11/28 13:10:45;;;;;;;5.40;3.10;;;;;;;;;;5022060;28;20048;-64
2021/11/28 13:13:15;;;;;;;5.32;3.30;;;;;;;;;;5023259;28;20026;-65
2021/11/28 13:15:44;;;;;;;7.70;4.28;;;;;;;;;;5022521;28;20040;-65
2021/11/28 13:18:10;;;;;;;10.13;4.10;;;;;;;;;;5026256;28;20013;-65
2021/11/28 13:20:36;;;;;;;6.78;3.40;;;;;;;;;;5027691;28;20033;-65
2021/11/28 13:23:03;;;;;;;7.88;4.03;;;;;;;;;;5027074;28;20052;-65
2021/11/28 13:25:30;;;;;;;6.18;3.60;;;;;;;;;;5025202;28;20033;-64
2021/11/28 13:28:04;;;;;;;11.48;4.13;;;;;;;;;;5027036;28;20030;-64
2021/11/28 13:30:32;;;;;;;7.57;3.92;;;;;;;;;;5012802;28;20036;-65
2021/11/28 13:33:24;;;;;;;7.45;4.15;;;;;;;;;;5021510;28;20070;-63
2021/11/28 13:36:00;;;;;;;6.70;4.07;;;;;;;;;;5020359;28;20116;-66
2021/11/28 13:38:27;;;;;;;5.95;3.47;;;;;;;;;;5025725;28;20029;-67
2021/11/28 13:41:01;;;;;;;7.20;3.60;;;;;;;;;;5020602;28;20163;-64
2021/11/28 13:43:30;;;;;;;12.00;4.10;;;;;;;;;;5027070;28;20036;-63
2021/11/28 13:45:55;;;;;;;6.40;3.60;;;;;;;;;;5028343;28;20029;-64
2021/11/28 13:48:20;;;;;;;8.60;5.22;;;;;;;;;;5026187;28;20033;-64
2021/11/28 13:50:45;;;;;;;7.25;4.68;;;;;;;;;;5026150;28;20051;-65
2021/11/28 13:53:11;;;;;;;7.82;5.00;;;;;;;;;;5028660;28;20033;-64
2021/11/28 13:55:48;;;;;;;9.18;5.72;;;;;;;;;;5023230;28;20389;-65
2021/11/28 13:58:13;;;;;;;9.63;5.28;;;;;;;;;;5028522;28;20070;-65
2021/11/28 14:00:39;;;;;;;9.88;6.10;;;;;;;;;;5028880;28;20017;-65
2021/11/28 14:03:04;;;;;;;8.48;5.70;;;;;;;;;;5017482;28;20029;-65
2021/11/28 14:05:29;;;;;;;7.78;5.30;;;;;;;;;;5020496;28;20431;-65
2021/11/28 14:07:59;;;;;;;9.55;5.70;;;;;;;;;;5025128;28;20093;-64
2021/11/28 14:10:28;;;;;;;9.32;6.03;;;;;;;;;;5026881;28;20021;-64
2021/11/28 14:12:58;;;;;;;9.63;5.93;;;;;;;;;;5026613;28;20461;-64
2021/11/28 14:15:25;;;;;;;;;;;;;;;;;;5017719;28;20116;-63
2021/11/28 14:17:57;;;;;;;9.77;5.22;;;;;;;;;;5023788;28;20022;-63
2021/11/28 14:20:25;;;;;;;7.15;5.00;;;;;;;;;;5024567;28;20033;-63
2021/11/28 14:22:53;;;;;;;11.00;5.60;;;;;;;;;;5029076;28;20425;-63
2021/11/28 14:25:23;;;;;;;7.90;5.05;;;;;;;;;;5028075;28;20476;-64
2021/11/28 14:28:04;;;;;;;8.65;5.25;;;;;;;;;;5018285;28;20025;-63
2021/11/28 14:30:30;;;;;;;9.52;5.53;;;;;;;;;;5027805;28;20032;-62
2021/11/28 14:33:00;;;;;;;12.05;6.10;;;;;;;;;;5024617;28;20029;-63
2021/11/28 14:35:25;;;;;;;9.52;5.38;;;;;;;;;;5017168;28;20051;-64
2021/11/28 14:38:09;;;;;;;8.65;5.40;;;;;;;;;;5025141;28;20055;-64
2021/11/28 14:40:34;;;;;;;10.13;5.80;;;;;;;;;;5028160;28;20500;-62
2021/11/28 14:43:03;;;;;;;8.95;5.03;;;;;;;;;;5025043;28;20017;-64
2021/11/28 14:45:28;;;;;;;8.55;5.75;;;;;;;;;;5027976;28;20136;-63
2021/11/28 14:48:10;;;;;;;9.43;5.72;;;;;;;;;;5027287;28;20361;-63
2021/11/28 14:50:45;;;;;;;9.48;5.70;;;;;;;;;;5030867;28;20422;-63
2021/11/28 14:53:10;;;;;;;10.75;5.82;;;;;;;;;;5030807;28;20108;-63